Time;durP1;ratioP1;P1;durP2;ratioP2;P2;SDS_P1;SDS_P2;PMS_P1;PMS_P2;Temp;Humidity;BMP_temperature;BMP_pressure;BME280_temperature;BME280_humidity;BME280_pressure;Samples;Min_cycle;Max_cycle;Signal;HPM_P1;HPM_P2
2022/04/01 06:11:35;;;;;;;;;13.00;10.00;;;;;;;;5102863;27;1735141;-72
2022/04/01 06:14:02;;;;;;;;;10.33;9.33;;;;;;;;5148604;27;9483;-72
2022/04/01 06:16:43;;;;;;;;;11.25;7.75;;;;;;;;5148046;27;11411;-73
2022/04/01 06:19:27;;;;;;;;;11.00;8.00;;;;;;;;5148357;27;11508;-74
2022/04/01 06:22:03;;;;;;;;;14.00;9.00;;;;;;;;5129718;27;11535;-72
2022/04/01 06:24:34;;;;;;;;;7.25;7.00;;;;;;;;5147756;27;11412;-73
2022/04/01 06:27:03;;;;;;;;;7.50;6.75;;;;;;;;5148163;27;12126;-73
2022/04/01 06:29:28;;;;;;;;;11.00;9.00;;;;;;;;5147837;27;11518;-73
2022/04/01 06:31:59;;;;;;;;;10.75;8.00;;;;;;;;5129028;27;11423;-73
2022/04/01 06:34:44;;;;;;;;;7.50;7.00;;;;;;;;5147746;27;8850;-73
2022/04/01 06:37:14;;;;;;;;;8.00;6.75;;;;;;;;5129517;27;11396;-73
2022/04/01 06:39:47;;;;;;;;;7.25;7.25;;;;;;;;5143157;27;11728;-74
2022/04/01 06:42:19;;;;;;;;;10.00;8.75;;;;;;;;5145966;27;11530;-72
2022/04/01 06:44:47;;;;;;;;;7.50;7.00;;;;;;;;5147048;27;11512;-73
2022/04/01 06:47:12;;;;;;;;;7.50;7.00;;;;;;;;5146866;27;11424;-72
2022/04/01 06:49:38;;;;;;;;;27.33;26.00;;;;;;;;5145990;27;12007;-72
2022/04/01 06:52:03;;;;;;;;;36.67;31.00;;;;;;;;5146940;27;8778;-72
2022/04/01 06:54:29;;;;;;;;;17.50;13.25;;;;;;;;5147295;27;8828;-72
2022/04/01 06:56:54;;;;;;;;;9.50;8.00;;;;;;;;5127160;27;8832;-72
2022/04/01 06:59:20;;;;;;;;;9.00;9.00;;;;;;;;5146202;27;8928;-71
2022/04/01 07:01:46;;;;;;;;;9.25;7.25;;;;;;;;5147150;27;8801;-72
2022/04/01 07:04:11;;;;;;;;;9.00;8.00;;;;;;;;5146819;27;8798;-71
2022/04/01 07:06:36;;;;;;;;;9.00;9.00;;;;;;;;5147062;27;8899;-72
2022/04/01 07:09:02;;;;;;;;;10.00;8.75;;;;;;;;5146003;27;9482;-72
2022/04/01 07:11:27;;;;;;;;;7.25;7.25;;;;;;;;5146449;27;8817;-72
2022/04/01 07:13:53;;;;;;;;;8.75;8.75;;;;;;;;5146597;27;8830;-73
2022/04/01 07:16:18;;;;;;;;;9.00;7.00;;;;;;;;5145256;27;8893;-72
2022/04/01 07:18:44;;;;;;;;;7.00;6.25;;;;;;;;5142414;27;12129;-72
2022/04/01 07:21:09;;;;;;;;;6.00;3.75;;;;;;;;5138357;27;8810;-73
2022/04/01 07:23:36;;;;;;;;;10.25;6.25;;;;;;;;5131456;27;8882;-74
2022/04/01 07:26:02;;;;;;;;;8.25;6.50;;;;;;;;5131498;27;8856;-75
2022/04/01 07:28:30;;;;;;;;;7.00;7.00;;;;;;;;5112778;27;11446;-74
2022/04/01 07:30:55;;;;;;;;;8.25;6.50;;;;;;;;5128394;27;8818;-76
2022/04/01 07:33:21;;;;;;;;;5.50;5.00;;;;;;;;5131299;27;11517;-74
2022/04/01 07:35:49;;;;;;;;;7.00;6.50;;;;;;;;5131417;27;9573;-73
2022/04/01 07:38:15;;;;;;;;;5.25;5.00;;;;;;;;5128655;27;8914;-73
2022/04/01 07:40:40;;;;;;;;;8.00;7.50;;;;;;;;5130975;27;11524;-73
2022/04/01 07:43:05;;;;;;;;;5.75;5.75;;;;;;;;5130948;27;8785;-73
2022/04/01 07:45:34;;;;;;;;;7.75;6.50;;;;;;;;5130612;27;8808;-74
2022/04/01 07:48:00;;;;;;;;;7.75;6.00;;;;;;;;5131054;27;8800;-73
2022/04/01 07:50:26;;;;;;;;;5.75;4.25;;;;;;;;5130898;27;11411;-72
2022/04/01 07:52:51;;;;;;;;;10.25;6.25;;;;;;;;5130538;27;11384;-72
2022/04/01 07:55:17;;;;;;;;;6.75;6.75;;;;;;;;5112423;27;8824;-72
2022/04/01 07:57:43;;;;;;;;;6.75;5.50;;;;;;;;5130510;27;8778;-72
2022/04/01 08:00:08;;;;;;;;;8.50;7.50;;;;;;;;5130541;27;8818;-75
2022/04/01 08:02:34;;;;;;;;;13.00;7.25;;;;;;;;5126591;27;8774;-72
2022/04/01 08:04:59;;;;;;;;;6.50;5.25;;;;;;;;5128887;27;8768;-72
2022/04/01 08:07:25;;;;;;;;;5.50;5.00;;;;;;;;5130602;27;8778;-72
2022/04/01 08:09:50;;;;;;;;;13.00;5.50;;;;;;;;5130175;27;8838;-73
2022/04/01 08:12:15;;;;;;;;;9.00;7.25;;;;;;;;5038328;28;11073;-73
2022/04/01 08:14:41;;;;;;;;;10.00;8.00;;;;;;;;5069096;28;8839;-73
2022/04/01 08:17:06;;;;;;;;;9.50;7.50;;;;;;;;5069812;28;8827;-73
2022/04/01 08:19:32;;;;;;;;;5.00;4.25;;;;;;;;5070198;28;8815;-74
2022/04/01 08:21:58;;;;;;;;;10.75;8.00;;;;;;;;5070416;28;8800;-74
2022/04/01 08:24:24;;;;;;;;;9.00;6.00;;;;;;;;5070141;28;8808;-75
2022/04/01 08:26:50;;;;;;;;;6.00;5.25;;;;;;;;5070355;28;8846;-74
2022/04/01 08:29:15;;;;;;;;;2.75;2.00;;;;;;;;5069796;28;11684;-74
2022/04/01 08:31:41;;;;;;;;;9.50;9.00;;;;;;;;5069775;28;8841;-73
2022/04/01 08:34:06;;;;;;;;;11.50;8.00;;;;;;;;5067146;28;8823;-72
2022/04/01 08:36:31;;;;;;;;;11.00;9.00;;;;;;;;5069554;28;8870;-72
2022/04/01 08:38:56;;;;;;;;;6.25;6.00;;;;;;;;5069331;28;8808;-73
2022/04/01 08:41:22;;;;;;;;;9.50;6.00;;;;;;;;5068035;28;8862;-72
2022/04/01 08:43:49;;;;;;;;;7.75;7.50;;;;;;;;5068730;28;8938;-72
2022/04/01 08:46:14;;;;;;;;;6.25;6.00;;;;;;;;5069405;28;8842;-72
2022/04/01 08:48:41;;;;;;;;;6.50;6.50;;;;;;;;5069662;28;11467;-71
2022/04/01 08:51:06;;;;;;;;;7.75;4.75;;;;;;;;5069289;28;8835;-72
2022/04/01 08:53:37;;;;;;;;;8.75;6.50;;;;;;;;5069593;28;11494;-71
2022/04/01 08:56:03;;;;;;;;;9.25;5.50;;;;;;;;5069404;28;8988;-71
2022/04/01 08:58:28;;;;;;;;;5.75;5.00;;;;;;;;5069179;28;11454;-71
2022/04/01 09:00:53;;;;;;;;;5.25;5.00;;;;;;;;5052058;28;8888;-72
2022/04/01 09:03:20;;;;;;;;;6.00;6.00;;;;;;;;5051664;28;8807;-71
2022/04/01 09:05:53;;;;;;;;;9.25;6.50;;;;;;;;5069060;28;8968;-72
2022/04/01 09:08:22;;;;;;;;;7.00;6.00;;;;;;;;5049644;28;11435;-72
2022/04/01 09:10:50;;;;;;;;;6.00;6.00;;;;;;;;5049367;28;11479;-70
2022/04/01 09:13:15;;;;;;;;;7.00;5.00;;;;;;;;5049136;28;11459;-74
2022/04/01 09:15:42;;;;;;;;;3.75;3.00;;;;;;;;5063672;28;11442;-74
2022/04/01 09:18:07;;;;;;;;;4.75;4.00;;;;;;;;5048635;28;8844;-74
2022/04/01 09:20:48;;;;;;;;;6.75;6.00;;;;;;;;5069147;28;11470;-73
2022/04/01 09:23:20;;;;;;;;;8.00;7.00;;;;;;;;5068107;28;8833;-74
2022/04/01 09:25:47;;;;;;;;;6.50;6.00;;;;;;;;5069205;28;11026;-75
2022/04/01 09:28:22;;;;;;;;;10.00;4.75;;;;;;;;5050962;28;11078;-74
2022/04/01 09:30:55;;;;;;;;;5.00;4.50;;;;;;;;5064675;28;11240;-73
2022/04/01 09:33:20;;;;;;;;;6.25;4.75;;;;;;;;5067309;28;11396;-74
2022/04/01 09:35:46;;;;;;;;;6.00;5.00;;;;;;;;5068555;28;11419;-75
2022/04/01 09:38:12;;;;;;;;;8.50;5.00;;;;;;;;5069189;28;8880;-74
2022/04/01 09:40:37;;;;;;;;;8.25;5.50;;;;;;;;5068635;28;11579;-74
2022/04/01 09:43:06;;;;;;;;;4.00;4.00;;;;;;;;5068787;28;8800;-74
2022/04/01 09:45:33;;;;;;;;;5.00;5.00;;;;;;;;5050654;28;8816;-74
2022/04/01 09:48:09;;;;;;;;;4.50;4.50;;;;;;;;5068819;28;11397;-74
2022/04/01 09:50:36;;;;;;;;;4.50;4.00;;;;;;;;5067598;28;11543;-74
2022/04/01 09:53:07;;;;;;;;;6.75;5.25;;;;;;;;5068601;28;11428;-73
2022/04/01 09:55:36;;;;;;;;;7.50;6.00;;;;;;;;5069088;28;11445;-74
2022/04/01 09:58:02;;;;;;;;;7.50;6.25;;;;;;;;5069200;28;11417;-74
2022/04/01 10:00:28;;;;;;;;;5.00;4.25;;;;;;;;5069088;28;11388;-75
2022/04/01 10:02:53;;;;;;;;;3.00;3.00;;;;;;;;5069050;28;11468;-74
2022/04/01 10:05:18;;;;;;;;;4.00;4.00;;;;;;;;5068484;28;8870;-75
2022/04/01 10:07:44;;;;;;;;;5.50;4.50;;;;;;;;5050890;28;8827;-70
2022/04/01 10:10:10;;;;;;;;;6.50;5.50;;;;;;;;5068125;28;9026;-72
2022/04/01 10:12:38;;;;;;;;;5.75;5.00;;;;;;;;5049714;28;8835;-73
2022/04/01 10:15:07;;;;;;;;;5.75;5.00;;;;;;;;5068065;28;8935;-73
2022/04/01 10:17:36;;;;;;;;;4.00;3.75;;;;;;;;5064830;28;11641;-73
2022/04/01 10:20:02;;;;;;;;;7.75;5.75;;;;;;;;5067719;28;11433;-73
2022/04/01 10:22:28;;;;;;;;;6.00;5.50;;;;;;;;5066965;28;11441;-73
2022/04/01 10:24:53;;;;;;;;;5.25;4.50;;;;;;;;5065994;28;11426;-73
2022/04/01 10:27:34;;;;;;;;;4.50;3.75;;;;;;;;5053182;28;8823;-72
2022/04/01 10:29:59;;;;;;;;;4.75;4.00;;;;;;;;5050571;28;9538;-74
2022/04/01 10:32:25;;;;;;;;;5.75;3.75;;;;;;;;5068120;28;11453;-72
2022/04/01 10:34:53;;;;;;;;;6.00;5.50;;;;;;;;5050207;28;8830;-72
2022/04/01 10:37:20;;;;;;;;;4.00;4.00;;;;;;;;5068032;28;10989;-72
2022/04/01 10:39:57;;;;;;;;;5.00;4.00;;;;;;;;5068031;28;11570;-71
2022/04/01 10:42:30;;;;;;;;;7.00;5.00;;;;;;;;5067665;28;11607;-73
2022/04/01 10:44:56;;;;;;;;;3.75;3.50;;;;;;;;5068578;28;12231;-72
2022/04/01 10:47:23;;;;;;;;;5.00;4.25;;;;;;;;5050592;28;12269;-70
2022/04/01 10:52:34;;;;;;;;;4.50;4.00;;;;;;;;5068515;28;11507;-72
2022/04/01 10:55:02;;;;;;;;;4.75;3.00;;;;;;;;5066194;28;11489;-73
2022/04/01 10:57:32;;;;;;;;;5.50;5.25;;;;;;;;5051536;28;11596;-74
2022/04/01 10:59:59;;;;;;;;;4.00;4.00;;;;;;;;5070439;28;11493;-74
2022/04/01 11:02:25;;;;;;;;;9.00;5.50;;;;;;;;5070707;28;11483;-73
2022/04/01 11:04:53;;;;;;;;;3.00;3.00;;;;;;;;5070570;28;11547;-72
2022/04/01 11:07:21;;;;;;;;;5.75;4.50;;;;;;;;5068504;28;8976;-74
2022/04/01 11:09:50;;;;;;;;;5.00;5.00;;;;;;;;5068607;28;11508;-73
2022/04/01 11:12:16;;;;;;;;;7.00;6.75;;;;;;;;5069467;28;11502;-73
2022/04/01 11:14:56;;;;;;;;;5.50;4.00;;;;;;;;5051736;28;11501;-75
2022/04/01 11:17:26;;;;;;;;;4.25;4.25;;;;;;;;5050795;28;8842;-73
2022/04/01 11:20:04;;;;;;;;;7.75;5.00;;;;;;;;5067653;28;11489;-73
2022/04/01 11:22:39;;;;;;;;;4.00;4.00;;;;;;;;5067974;28;11487;-75
2022/04/01 11:25:05;;;;;;;;;9.00;6.25;;;;;;;;5070497;28;11524;-72
2022/04/01 11:27:30;;;;;;;;;8.50;5.75;;;;;;;;5070680;28;12321;-72
2022/04/01 11:30:06;;;;;;;;;7.00;4.00;;;;;;;;5070591;28;11515;-70
2022/04/01 11:32:33;;;;;;;;;9.25;6.50;;;;;;;;5070102;28;8831;-73
2022/04/01 11:34:58;;;;;;;;;5.50;5.00;;;;;;;;5070280;28;11583;-75
2022/04/01 11:37:25;;;;;;;;;7.00;7.00;;;;;;;;5069959;28;11466;-78
2022/04/01 11:39:51;;;;;;;;;7.00;5.50;;;;;;;;5070309;28;8840;-80
2022/04/01 11:42:16;;;;;;;;;7.75;5.00;;;;;;;;5070268;28;11480;-81
2022/04/01 11:44:55;;;;;;;;;7.00;4.75;;;;;;;;5070014;28;8820;-80
2022/04/01 11:47:35;;;;;;;;;7.25;3.50;;;;;;;;5053308;28;8846;-80
2022/04/01 11:50:10;;;;;;;;;8.50;6.75;;;;;;;;5049344;28;11608;-80
2022/04/01 11:52:41;;;;;;;;;5.25;5.25;;;;;;;;5070648;28;11576;-80
2022/04/01 11:55:14;;;;;;;;;7.75;6.25;;;;;;;;5071398;28;11505;-80
2022/04/01 11:57:40;;;;;;;;;5.25;5.00;;;;;;;;5070970;28;11642;-80
2022/04/01 12:00:15;;;;;;;;;8.25;4.00;;;;;;;;5069893;28;11556;-80
2022/04/01 12:02:42;;;;;;;;;7.00;5.75;;;;;;;;5070980;28;11789;-78
2022/04/01 12:05:08;;;;;;;;;7.25;5.50;;;;;;;;5052279;28;11499;-81
2022/04/01 12:10:18;;;;;;;;;5.50;4.75;;;;;;;;5070072;28;11525;-79
2022/04/01 12:12:58;;;;;;;;;4.25;4.00;;;;;;;;5070554;28;11491;-77
2022/04/01 12:15:43;;;;;;;;;7.00;4.00;;;;;;;;5070770;28;11506;-78
2022/04/01 12:18:13;;;;;;;;;4.00;4.00;;;;;;;;5070833;28;11513;-79
2022/04/01 12:20:39;;;;;;;;;7.75;4.00;;;;;;;;5053065;28;11495;-83
2022/04/01 12:23:05;;;;;;;;;4.00;4.00;;;;;;;;5070773;28;11584;-77
2022/04/01 12:25:31;;;;;;;;;8.00;6.50;;;;;;;;5070454;28;8826;-73
2022/04/01 12:27:58;;;;;;;;;7.50;5.00;;;;;;;;5070555;28;8908;-74
2022/04/01 12:30:43;;;;;;;;;6.75;6.75;;;;;;;;5067134;28;11545;-77
2022/04/01 12:33:09;;;;;;;;;7.00;5.50;;;;;;;;5070173;28;11607;-79
2022/04/01 12:35:45;;;;;;;;;6.50;4.50;;;;;;;;5052623;28;11688;-81
2022/04/01 12:38:11;;;;;;;;;6.75;4.75;;;;;;;;5052587;28;12212;-72
2022/04/01 12:40:45;;;;;;;;;6.00;4.00;;;;;;;;5070631;28;11535;-73
2022/04/01 12:43:27;;;;;;;;;6.25;6.00;;;;;;;;5070319;28;8823;-78
2022/04/01 12:46:00;;;;;;;;;5.25;5.25;;;;;;;;5050828;28;11536;-72
2022/04/01 12:48:25;;;;;;;;;8.75;6.25;;;;;;;;5050257;28;11474;-75
2022/04/01 12:50:50;;;;;;;;;4.25;4.00;;;;;;;;5031984;28;12295;-75
2022/04/01 12:53:16;;;;;;;;;8.00;4.00;;;;;;;;5050535;28;8848;-74
2022/04/01 12:55:42;;;;;;;;;7.75;5.50;;;;;;;;5050175;28;8841;-74
2022/04/01 12:58:12;;;;;;;;;4.25;4.25;;;;;;;;5069663;28;11479;-74
2022/04/01 13:00:37;;;;;;;;;4.75;4.75;;;;;;;;5069652;28;8855;-76
2022/04/01 13:03:03;;;;;;;;;5.25;4.00;;;;;;;;5051782;28;11429;-80
2022/04/01 13:05:28;;;;;;;;;5.25;3.25;;;;;;;;5052329;28;9524;-79
2022/04/01 13:07:54;;;;;;;;;4.50;4.50;;;;;;;;5070159;28;8926;-78
2022/04/01 13:10:21;;;;;;;;;5.00;4.00;;;;;;;;5051437;28;8874;-78
2022/04/01 19:41:59;;;;;;;;;1.00;1.00;;;;;;;;5148668;27;14090;-79
2022/04/01 19:44:25;;;;;;;;;1.67;1.67;;;;;;;;5127725;27;11443;-80
2022/04/01 19:46:51;;;;;;;;;9.00;3.00;;;;;;;;5109081;27;11466;-81
2022/04/01 19:49:16;;;;;;;;;2.00;1.00;;;;;;;;5126566;27;8825;-79
2022/04/01 19:52:05;;;;;;;;;1.75;1.75;;;;;;;;5124283;27;8883;-80
2022/04/01 19:54:32;;;;;;;;;2.75;2.75;;;;;;;;5044243;28;9011;-78
2022/04/01 19:56:57;;;;;;;;;1.75;1.00;;;;;;;;5046526;28;11544;-78
2022/04/01 19:59:22;;;;;;;;;3.00;1.25;;;;;;;;5047493;28;11585;-79
2022/04/01 20:01:48;;;;;;;;;1.50;1.50;;;;;;;;5047116;28;9043;-79
2022/04/01 20:04:13;;;;;;;;;1.00;1.00;;;;;;;;5046404;28;8841;-82
2022/04/01 20:06:38;;;;;;;;;1.75;1.75;;;;;;;;5063556;28;8952;-80
2022/04/01 20:09:06;;;;;;;;;3.50;3.50;;;;;;;;5064367;28;8798;-78
2022/04/01 20:11:33;;;;;;;;;1.75;1.75;;;;;;;;5064081;28;8849;-78
2022/04/01 20:13:58;;;;;;;;;1.00;0.00;;;;;;;;5047906;28;11559;-75
2022/04/01 20:16:24;;;;;;;;;1.25;1.00;;;;;;;;5063904;28;11571;-76
2022/04/01 20:18:49;;;;;;;;;1.00;1.00;;;;;;;;5064209;28;8809;-76
2022/04/01 20:21:14;;;;;;;;;2.00;2.00;;;;;;;;5047282;28;8996;-76
2022/04/01 20:24:11;;;;;;;;;1.00;1.00;;;;;;;;5018729;27;3729608;-78
2022/04/01 20:26:37;;;;;;;;;1.00;1.00;;;;;;;;5156653;27;20387;-78
2022/04/01 20:29:02;;;;;;;;;3.00;2.00;;;;;;;;5099357;27;11361;-77
2022/04/01 20:31:29;;;;;;;;;1.75;1.00;;;;;;;;5155992;27;9230;-77
2022/04/01 20:33:54;;;;;;;;;5.00;1.00;;;;;;;;5139385;27;12288;-78
2022/04/01 20:36:20;;;;;;;;;9.75;3.00;;;;;;;;5138578;27;12089;-79
2022/04/01 20:38:46;;;;;;;;;3.00;2.00;;;;;;;;5129505;27;10558;-78
2022/04/01 20:41:11;;;;;;;;;1.50;1.50;;;;;;;;5156501;27;10520;-77
2022/04/01 20:43:40;;;;;;;;;5.75;5.75;;;;;;;;5138066;27;11279;-78
2022/04/01 20:46:06;;;;;;;;;1.00;0.00;;;;;;;;5157110;27;12549;-78
2022/04/01 20:48:34;;;;;;;;;2.00;1.00;;;;;;;;5137240;27;13360;-77
2022/04/01 20:51:00;;;;;;;;;1.50;1.50;;;;;;;;5156951;27;8806;-78
2022/04/01 20:53:27;;;;;;;;;3.75;1.75;;;;;;;;5137699;27;11888;-77
2022/04/01 20:55:52;;;;;;;;;2.50;1.00;;;;;;;;5155635;27;11636;-77
2022/04/01 20:58:18;;;;;;;;;2.75;0.00;;;;;;;;5156212;27;11367;-77
2022/04/01 21:00:44;;;;;;;;;2.25;2.00;;;;;;;;5137532;27;10975;-75
2022/04/01 21:03:09;;;;;;;;;5.00;1.00;;;;;;;;5136115;27;11522;-76
2022/04/01 21:05:34;;;;;;;;;1.00;1.00;;;;;;;;5117022;27;10687;-75
2022/04/01 21:08:00;;;;;;;;;1.25;0.75;;;;;;;;5135939;27;8773;-75
2022/04/01 21:10:31;;;;;;;;;2.00;1.00;;;;;;;;5116240;27;10346;-76
2022/04/01 21:12:56;;;;;;;;;1.00;1.00;;;;;;;;5116564;27;13527;-75
2022/04/01 21:15:22;;;;;;;;;1.00;1.00;;;;;;;;5135338;27;11352;-76
2022/04/01 21:17:47;;;;;;;;;1.00;1.00;;;;;;;;5135212;27;8780;-77
2022/04/01 21:20:12;;;;;;;;;2.33;1.33;;;;;;;;5135572;27;8792;-78
2022/04/01 21:22:38;;;;;;;;;0.33;0.00;;;;;;;;5134589;27;11416;-78
2022/04/01 21:25:04;;;;;;;;;2.33;1.00;;;;;;;;5135559;27;11381;-78
2022/04/01 21:27:30;;;;;;;;;1.33;1.00;;;;;;;;5137109;27;10096;-84
2022/04/01 21:29:57;;;;;;;;;0.33;0.00;;;;;;;;5136480;27;8874;-79
2022/04/01 21:32:23;;;;;;;;;1.00;1.00;;;;;;;;5135818;27;9662;-77
2022/04/01 21:34:49;;;;;;;;;1.00;1.00;;;;;;;;5125156;27;11366;-77
2022/04/01 21:37:14;;;;;;;;;3.00;2.00;;;;;;;;5121702;28;11367;-76
2022/04/01 21:39:42;;;;;;;;;2.50;1.00;;;;;;;;5121810;27;8825;-78
2022/04/01 21:42:11;;;;;;;;;2.33;0.00;;;;;;;;5121737;28;10546;-79
2022/04/01 21:44:39;;;;;;;;;0.00;0.00;;;;;;;;5121779;27;12109;-80
2022/04/01 21:47:05;;;;;;;;;2.00;1.50;;;;;;;;5120839;27;11536;-77
2022/04/01 21:49:30;;;;;;;;;1.75;1.50;;;;;;;;5120551;28;12086;-77
2022/04/01 21:51:55;;;;;;;;;2.00;0.00;;;;;;;;5117660;22;9124;-75
2022/04/01 21:54:21;;;;;;;;;2.00;0.00;;;;;;;;5080649;28;11313;-77
2022/04/01 21:56:46;;;;;;;;;0.00;0.00;;;;;;;;5079207;28;8797;-76
2022/04/01 21:59:15;;;;;;;;;0.75;0.00;;;;;;;;5080500;28;8782;-76
2022/04/01 22:01:47;;;;;;;;;1.25;1.25;;;;;;;;5080378;28;8869;-77
2022/04/01 22:04:14;;;;;;;;;0.00;0.00;;;;;;;;5079635;28;13728;-76
2022/04/01 22:06:43;;;;;;;;;0.00;0.00;;;;;;;;5078950;28;14434;-76
2022/04/01 22:09:09;;;;;;;;;1.00;0.00;;;;;;;;5081043;28;11440;-77
2022/04/01 22:11:34;;;;;;;;;1.75;1.25;;;;;;;;5080569;28;11514;-77
2022/04/01 22:14:00;;;;;;;;;0.33;0.33;;;;;;;;5080766;28;10238;-77
2022/04/01 22:16:26;;;;;;;;;0.50;0.50;;;;;;;;5080099;28;9445;-77
2022/04/01 22:18:52;;;;;;;;;2.00;1.00;;;;;;;;5080106;28;8836;-76
2022/04/01 22:21:17;;;;;;;;;0.25;0.25;;;;;;;;5079864;28;12204;-76
2022/04/01 22:23:42;;;;;;;;;2.00;1.00;;;;;;;;5081273;28;11302;-79
2022/04/01 22:26:08;;;;;;;;;0.00;0.00;;;;;;;;5082012;28;11313;-77
2022/04/01 22:28:34;;;;;;;;;2.00;1.00;;;;;;;;5081714;28;8774;-77
2022/04/01 22:30:59;;;;;;;;;1.00;1.00;;;;;;;;5081125;28;8859;-77
2022/04/01 22:33:25;;;;;;;;;1.00;1.00;;;;;;;;5080136;28;11455;-76
2022/04/01 22:35:50;;;;;;;;;0.00;0.00;;;;;;;;5079929;28;8790;-76
2022/04/01 22:38:15;;;;;;;;;1.25;0.50;;;;;;;;5079948;28;8789;-76
2022/04/01 22:40:41;;;;;;;;;0.00;0.00;;;;;;;;5079411;28;11308;-76
2022/04/01 22:43:06;;;;;;;;;1.75;1.00;;;;;;;;5079571;28;11436;-76
2022/04/01 22:45:33;;;;;;;;;0.00;0.00;;;;;;;;5078970;28;10540;-76
2022/04/01 22:47:58;;;;;;;;;0.00;0.00;;;;;;;;5078296;28;12672;-76
2022/04/01 22:50:24;;;;;;;;;0.00;0.00;;;;;;;;5080104;28;11470;-76
2022/04/01 22:52:49;;;;;;;;;0.00;0.00;;;;;;;;5079556;28;8798;-75
2022/04/01 22:55:16;;;;;;;;;0.50;0.00;;;;;;;;5079977;28;8802;-76
2022/04/01 22:57:42;;;;;;;;;1.00;1.00;;;;;;;;5079543;28;8777;-76
2022/04/01 23:00:11;;;;;;;;;4.00;1.00;;;;;;;;5078211;28;12072;-76
2022/04/01 23:02:36;;;;;;;;;1.00;1.00;;;;;;;;5079338;28;8786;-77
2022/04/01 23:05:01;;;;;;;;;1.00;1.00;;;;;;;;5078989;28;11428;-76
2022/04/01 23:07:27;;;;;;;;;0.00;0.00;;;;;;;;5080011;28;8820;-76
2022/04/01 23:09:52;;;;;;;;;1.00;1.00;;;;;;;;5079563;28;9727;-77
2022/04/01 23:12:17;;;;;;;;;0.00;0.00;;;;;;;;5079508;28;9063;-77
2022/04/01 23:14:43;;;;;;;;;3.33;0.00;;;;;;;;5077816;28;11562;-76
2022/04/01 23:17:08;;;;;;;;;0.50;0.00;;;;;;;;5079623;28;8794;-77
2022/04/01 23:19:34;;;;;;;;;3.75;0.00;;;;;;;;5079443;28;9532;-76
2022/04/01 23:22:00;;;;;;;;;0.50;0.50;;;;;;;;5078857;28;8876;-76
2022/04/01 23:24:27;;;;;;;;;4.25;0.00;;;;;;;;5079175;28;11517;-76
2022/04/01 23:26:55;;;;;;;;;0.75;0.75;;;;;;;;5079053;28;11381;-76
2022/04/01 23:29:21;;;;;;;;;0.00;0.00;;;;;;;;5078710;28;11513;-77
2022/04/01 23:31:46;;;;;;;;;0.33;0.00;;;;;;;;5079291;28;11475;-77
2022/04/01 23:34:13;;;;;;;;;0.00;0.00;;;;;;;;5079715;28;9604;-77
2022/04/01 23:36:38;;;;;;;;;1.33;0.00;;;;;;;;5079264;28;8843;-76
2022/04/01 23:39:04;;;;;;;;;2.00;0.00;;;;;;;;5078808;28;11462;-76
2022/04/01 23:41:29;;;;;;;;;0.00;0.00;;;;;;;;5078791;28;8919;-78
2022/04/01 23:43:54;;;;;;;;;2.00;0.00;;;;;;;;5079069;28;8818;-76
2022/04/01 23:46:20;;;;;;;;;1.67;0.00;;;;;;;;5078548;28;8798;-75
2022/04/01 23:48:45;;;;;;;;;0.00;0.00;;;;;;;;5078640;28;8999;-76
2022/04/01 23:51:10;;;;;;;;;1.00;0.00;;;;;;;;5078070;28;9005;-75
2022/04/01 23:53:35;;;;;;;;;0.00;0.00;;;;;;;;5078519;28;8966;-76
2022/04/01 23:56:02;;;;;;;;;0.00;0.00;;;;;;;;5079562;28;8798;-75
2022/04/01 23:58:28;;;;;;;;;0.00;0.00;;;;;;;;5079182;28;8901;-76
